createdAt,value
2022-08-23T00:00:42.961Z,8.00
2022-08-23T00:03:11.871Z,7.90
2022-08-23T00:05:41.068Z,8.60
2022-08-23T00:08:09.972Z,8.20
2022-08-23T00:10:48.946Z,8.00
2022-08-23T00:13:17.549Z,8.10
2022-08-23T00:15:49.906Z,7.80
2022-08-23T00:18:22.295Z,7.40
2022-08-23T00:20:53.397Z,8.80
2022-08-23T00:23:24.843Z,7.80
2022-08-23T00:25:53.555Z,8.40
2022-08-23T00:28:22.174Z,9.10
2022-08-23T00:30:53.941Z,8.60
2022-08-23T00:33:22.421Z,7.60
2022-08-23T00:35:51.166Z,7.90
2022-08-23T00:38:34.743Z,8.10
2022-08-23T00:41:07.303Z,8.30
2022-08-23T00:43:58.127Z,8.60
2022-08-23T00:47:14.778Z,8.70
2022-08-23T00:49:50.287Z,7.60
2022-08-23T00:52:29.015Z,8.60
2022-08-23T00:54:58.292Z,8.40
2022-08-23T00:57:28.743Z,9.20
2022-08-23T00:59:57.349Z,9.50
2022-08-23T01:02:28.209Z,8.60
2022-08-23T01:05:00.703Z,8.30
2022-08-23T01:07:42.628Z,8.00
2022-08-23T01:10:20.091Z,8.90
2022-08-23T01:12:58.071Z,9.00
2022-08-23T01:15:32.711Z,8.40
2022-08-23T01:18:05.071Z,9.20
2022-08-23T01:20:39.415Z,8.70
2022-08-23T01:23:18.918Z,8.10
2022-08-23T01:25:47.941Z,8.90
2022-08-23T01:28:17.665Z,8.40
2022-08-23T01:30:48.336Z,8.80
2022-08-23T01:33:19.052Z,8.90
2022-08-23T01:35:52.862Z,9.40
2022-08-23T01:38:22.136Z,10.00
2022-08-23T01:40:51.652Z,8.70
2022-08-23T01:43:22.951Z,9.20
2022-08-23T01:45:54.503Z,9.40
2022-08-23T01:48:25.354Z,9.30
2022-08-23T01:50:53.863Z,8.90
2022-08-23T01:53:22.803Z,9.00
2022-08-23T01:55:52.028Z,8.40
2022-08-23T01:58:24.076Z,9.20
2022-08-23T02:01:04.311Z,8.30
2022-08-23T02:03:36.628Z,8.10
2022-08-23T02:06:07.499Z,9.20
2022-08-23T02:08:54.485Z,8.10
2022-08-23T02:11:37.387Z,9.10
2022-08-23T02:14:09.148Z,9.50
2022-08-23T02:17:03.870Z,8.40
2022-08-23T02:19:37.960Z,9.80
2022-08-23T02:22:10.838Z,9.60
2022-08-23T02:24:42.416Z,8.30
2022-08-23T02:27:14.260Z,9.50
2022-08-23T02:29:47.043Z,10.00
2022-08-23T02:32:18.067Z,10.10
2022-08-23T02:34:51.011Z,9.60
2022-08-23T02:37:29.174Z,9.40
2022-08-23T02:39:57.730Z,9.20
2022-08-23T02:42:26.392Z,8.50
2022-08-23T02:44:55.776Z,9.20
2022-08-23T02:47:26.851Z,9.40
2022-08-23T02:50:08.947Z,8.50
2022-08-23T02:52:46.967Z,9.90
2022-08-23T02:55:18.802Z,8.70
2022-08-23T02:57:47.804Z,9.00
2022-08-23T03:00:18.384Z,9.70
2022-08-23T03:02:47.147Z,9.20
2022-08-23T03:05:16.611Z,9.80
2022-08-23T03:07:45.480Z,8.40
2022-08-23T03:10:15.814Z,8.80
2022-08-23T03:12:48.724Z,9.40
2022-08-23T03:15:20.338Z,9.90
2022-08-23T03:17:49.981Z,9.10
2022-08-23T03:20:19.754Z,9.50
2022-08-23T03:22:54.611Z,8.80
2022-08-23T03:25:28.712Z,8.50
2022-08-23T03:28:20.802Z,9.10
2022-08-23T03:30:50.319Z,10.20
2022-08-23T03:33:39.703Z,9.10
2022-08-23T03:36:11.767Z,9.50
2022-08-23T03:38:41.826Z,8.40
2022-08-23T03:41:17.142Z,8.70
2022-08-23T03:43:46.205Z,10.20
2022-08-23T03:46:23.311Z,9.60
2022-08-23T03:48:58.062Z,8.90
2022-08-23T03:51:28.639Z,9.40
2022-08-23T03:53:58.452Z,8.80
2022-08-23T03:56:33.113Z,10.10
2022-08-23T03:59:06.751Z,8.50
2022-08-23T04:01:35.911Z,9.00
2022-08-23T04:04:05.890Z,9.60
2022-08-23T04:06:35.489Z,8.40
2022-08-23T04:09:04.371Z,9.60
2022-08-23T04:11:33.319Z,8.20
2022-08-23T04:14:07.640Z,9.70
2022-08-23T04:16:38.295Z,9.40
2022-08-23T04:19:08.849Z,8.90
2022-08-23T04:21:39.506Z,9.40
2022-08-23T04:24:08.462Z,7.80
2022-08-23T04:26:37.185Z,9.70
2022-08-23T04:29:06.692Z,9.20
2022-08-23T04:31:37.477Z,8.50
2022-08-23T04:34:08.795Z,9.50
2022-08-23T04:36:40.316Z,8.50
2022-08-23T04:39:13.469Z,7.90
2022-08-23T04:42:01.022Z,8.00
2022-08-23T04:44:30.263Z,9.10
2022-08-23T04:47:12.846Z,9.60
2022-08-23T04:49:41.942Z,9.00
2022-08-23T04:52:10.749Z,8.80
2022-08-23T04:54:41.482Z,9.20
2022-08-23T04:57:50.560Z,8.20
2022-08-23T05:00:27.905Z,8.90
2022-08-23T05:02:57.423Z,10.00
2022-08-23T05:05:36.238Z,7.50
2022-08-23T05:08:05.290Z,8.50
2022-08-23T05:10:33.906Z,9.20
2022-08-23T05:13:03.717Z,8.40
2022-08-23T05:15:32.250Z,7.70
2022-08-23T05:18:06.147Z,8.60
2022-08-23T05:20:37.954Z,8.80
2022-08-23T05:23:06.774Z,8.90
2022-08-23T05:25:51.522Z,7.90
2022-08-23T05:28:44.374Z,10.50
2022-08-23T05:31:18.689Z,8.80
2022-08-23T05:34:08.005Z,7.10
2022-08-23T05:36:59.864Z,8.70
2022-08-23T05:39:37.455Z,8.20
2022-08-23T05:42:13.087Z,8.50
2022-08-23T05:44:43.364Z,8.10
2022-08-23T05:47:15.135Z,7.40
2022-08-23T05:50:09.244Z,8.90
2022-08-23T05:52:38.706Z,8.10
2022-08-23T05:55:08.826Z,7.60
2022-08-23T05:58:06.955Z,7.60
2022-08-23T06:00:37.368Z,8.80
2022-08-23T06:03:09.462Z,8.00
2022-08-23T06:05:41.680Z,8.30
2022-08-23T06:08:10.469Z,8.00
2022-08-23T06:10:42.199Z,7.90
2022-08-23T06:13:20.974Z,7.20
2022-08-23T06:15:49.814Z,7.90
2022-08-23T06:18:20.405Z,8.40
2022-08-23T06:20:57.962Z,8.40
2022-08-23T06:23:41.508Z,7.80
2022-08-23T06:26:14.690Z,8.00
2022-08-23T06:28:50.858Z,6.90
2022-08-23T06:31:37.692Z,6.30
2022-08-23T06:34:12.179Z,8.10
2022-08-23T06:37:07.149Z,7.00
2022-08-23T06:39:57.404Z,8.00
2022-08-23T06:42:54.733Z,7.80
2022-08-23T06:45:35.288Z,6.80
2022-08-23T06:48:07.593Z,7.20
2022-08-23T06:50:36.102Z,8.20
2022-08-23T06:53:44.395Z,7.30
2022-08-23T06:56:34.994Z,6.50
2022-08-23T06:59:08.285Z,7.90
2022-08-23T07:02:05.281Z,6.40
2022-08-23T07:04:55.212Z,6.80
2022-08-23T07:07:44.477Z,6.40
2022-08-23T07:10:16.264Z,6.80
2022-08-23T07:12:45.410Z,7.10
2022-08-23T07:15:15.003Z,7.00
2022-08-23T07:17:46.317Z,6.90
2022-08-23T07:20:15.302Z,6.80
2022-08-23T07:22:45.626Z,7.40
2022-08-23T07:25:15.183Z,6.60
2022-08-23T07:27:48.264Z,7.00
2022-08-23T07:30:18.138Z,7.70
2022-08-23T07:32:47.482Z,7.30
2022-08-23T07:35:29.667Z,7.90
2022-08-23T07:38:05.677Z,8.50
2022-08-23T07:40:43.762Z,7.80
2022-08-23T07:43:23.075Z,7.80
2022-08-23T07:45:55.954Z,6.70
2022-08-23T07:48:50.364Z,7.80
2022-08-23T07:51:17.926Z,7.80
2022-08-23T07:53:46.691Z,8.10
2022-08-23T07:56:19.561Z,7.40
2022-08-23T07:59:14.602Z,7.90
2022-08-23T08:02:01.731Z,7.20
2022-08-23T08:04:30.782Z,7.90
2022-08-23T08:07:18.127Z,7.90
2022-08-23T08:09:49.555Z,7.20
2022-08-23T08:12:18.272Z,7.20
2022-08-23T08:14:48.395Z,7.70
2022-08-23T08:17:18.136Z,7.70
2022-08-23T08:20:19.583Z,6.40
2022-08-23T08:22:56.433Z,8.10
2022-08-23T08:25:30.476Z,6.50
2022-08-23T08:27:59.902Z,6.50
2022-08-23T08:30:32.266Z,8.00
2022-08-23T08:33:01.250Z,7.70
2022-08-23T08:35:31.389Z,7.30
2022-08-23T08:38:01.887Z,7.40
2022-08-23T08:40:36.109Z,7.20
2022-08-23T08:43:19.926Z,7.40
2022-08-23T08:45:59.819Z,7.30
2022-08-23T08:48:30.191Z,7.30
2022-08-23T08:51:02.943Z,7.20
2022-08-23T08:53:38.954Z,9.20
2022-08-23T08:56:21.173Z,7.30
2022-08-23T08:58:58.941Z,8.30
2022-08-23T09:01:31.938Z,8.30
2022-08-23T09:04:02.198Z,9.70
2022-08-23T09:06:41.883Z,9.00
2022-08-23T09:09:24.732Z,7.70
2022-08-23T09:12:13.021Z,8.40
2022-08-23T09:14:58.116Z,8.80
2022-08-23T09:17:38.139Z,8.60
2022-08-23T09:20:08.628Z,8.50
2022-08-23T09:22:41.390Z,6.90
2022-08-23T09:25:17.362Z,7.60
2022-08-23T09:27:56.760Z,8.90
2022-08-23T09:30:47.305Z,8.10
2022-08-23T09:33:20.477Z,8.40
2022-08-23T09:36:05.898Z,9.30
2022-08-23T09:38:35.306Z,9.10
2022-08-23T09:41:18.710Z,7.80
2022-08-23T09:43:48.340Z,10.70
2022-08-23T09:46:27.815Z,8.80
2022-08-23T09:48:58.332Z,8.30
2022-08-23T09:51:35.195Z,7.50
2022-08-23T09:56:38.869Z,8.50
2022-08-23T09:59:27.734Z,8.60
2022-08-23T10:02:02.551Z,9.20
2022-08-23T10:04:44.094Z,8.80
2022-08-23T10:07:28.527Z,7.80
2022-08-23T10:10:15.224Z,8.20
2022-08-23T10:12:44.823Z,8.90
2022-08-23T10:15:15.450Z,8.10
2022-08-23T10:17:54.563Z,7.40
2022-08-23T10:20:35.506Z,8.00
2022-08-23T10:23:22.318Z,8.00
2022-08-23T10:25:57.403Z,8.10
2022-08-23T10:28:57.421Z,8.60
2022-08-23T10:31:34.468Z,8.80
2022-08-23T10:34:24.553Z,8.00
2022-08-23T10:37:08.391Z,8.40
2022-08-23T10:39:45.629Z,8.30
2022-08-23T10:42:33.942Z,7.80
2022-08-23T10:45:15.379Z,8.50
2022-08-23T10:48:03.991Z,8.00
2022-08-23T10:50:44.295Z,8.50
2022-08-23T10:53:33.825Z,14.40
2022-08-23T10:56:07.327Z,8.10
2022-08-23T10:58:45.301Z,8.40
2022-08-23T11:01:20.927Z,8.30
2022-08-23T11:04:00.007Z,7.30
2022-08-23T11:06:52.692Z,6.60
2022-08-23T11:09:50.215Z,11.50
2022-08-23T11:12:29.656Z,5.90
2022-08-23T11:15:12.468Z,6.30
2022-08-23T11:18:03.773Z,6.10
2022-08-23T11:21:02.555Z,6.40
2022-08-23T11:23:44.262Z,5.90
2022-08-23T11:27:06.596Z,6.10
2022-08-23T11:29:43.556Z,5.40
2022-08-23T11:32:44.870Z,6.10
2022-08-23T11:35:43.088Z,5.80
2022-08-23T11:38:15.037Z,5.90
2022-08-23T11:43:37.638Z,6.20
2022-08-23T11:46:26.449Z,7.00
2022-08-23T11:49:55.324Z,6.30
2022-08-23T11:52:46.644Z,6.30
2022-08-23T11:55:31.674Z,7.10
2022-08-23T11:58:18.409Z,8.40
2022-08-23T12:00:58.874Z,6.50
2022-08-23T12:03:59.341Z,7.40
2022-08-23T12:06:40.590Z,6.80
2022-08-23T12:09:36.070Z,6.00
2022-08-23T12:12:25.710Z,6.50
2022-08-23T12:15:18.982Z,5.70
2022-08-23T12:18:14.797Z,7.80
2022-08-23T12:21:00.797Z,6.00
2022-08-23T12:23:30.835Z,7.10
2022-08-23T12:26:07.613Z,6.80
2022-08-23T12:28:42.995Z,6.10
2022-08-23T12:31:20.666Z,7.30
2022-08-23T12:34:38.360Z,6.50
2022-08-23T12:37:20.990Z,5.40
2022-08-23T12:39:55.271Z,6.10
2022-08-23T12:42:29.083Z,5.40
2022-08-23T12:48:48.305Z,5.90
2022-08-23T12:51:17.467Z,6.80
2022-08-23T12:53:46.138Z,6.50
2022-08-23T12:56:19.498Z,6.40
2022-08-23T12:58:53.611Z,6.10
2022-08-23T13:01:26.394Z,7.40
2022-08-23T13:04:07.079Z,6.60
2022-08-23T13:07:20.089Z,6.60
2022-08-23T13:10:21.553Z,6.40
2022-08-23T13:13:00.773Z,6.20
2022-08-23T13:15:50.395Z,6.00
2022-08-23T13:18:49.290Z,6.90
2022-08-23T13:21:39.634Z,7.40
2022-08-23T13:24:38.645Z,6.60
2022-08-23T13:28:09.726Z,6.80
2022-08-23T13:31:03.943Z,6.80
2022-08-23T13:33:34.170Z,6.40
2022-08-23T13:36:22.908Z,7.80
2022-08-23T13:38:55.560Z,7.30
2022-08-23T13:41:32.690Z,7.40
2022-08-23T13:44:10.243Z,8.10
2022-08-23T13:46:46.905Z,7.50
2022-08-23T13:49:19.676Z,6.50
2022-08-23T13:52:38.027Z,8.70
2022-08-23T13:54:54.118Z,6.90
2022-08-23T13:57:23.085Z,8.50
2022-08-23T13:59:54.871Z,7.20
2022-08-23T14:02:37.607Z,6.30
2022-08-23T14:05:08.186Z,9.40
2022-08-23T14:07:37.926Z,7.70
2022-08-23T14:10:10.012Z,7.60
2022-08-23T14:15:13.592Z,8.60
2022-08-23T14:17:46.342Z,7.40
2022-08-23T14:20:33.342Z,7.00
2022-08-23T14:23:11.848Z,7.40
2022-08-23T14:25:43.735Z,6.70
2022-08-23T14:28:12.685Z,8.20
2022-08-23T14:30:41.628Z,7.60
2022-08-23T14:33:10.586Z,8.70
2022-08-23T14:35:39.425Z,7.60
2022-08-23T14:38:08.289Z,9.40
2022-08-23T14:40:37.066Z,8.20
2022-08-23T14:43:06.174Z,8.00
2022-08-23T14:45:34.720Z,8.50
2022-08-23T14:48:04.156Z,8.60
2022-08-23T14:50:33.632Z,8.50
2022-08-23T14:53:03.865Z,7.90
2022-08-23T14:55:32.764Z,8.60
2022-08-23T14:58:02.408Z,8.30
2022-08-23T15:00:31.605Z,8.30
2022-08-23T15:03:04.174Z,7.50
2022-08-23T15:05:35.341Z,8.90
2022-08-23T15:08:04.010Z,7.40
2022-08-23T15:13:29.834Z,8.70
2022-08-23T15:16:03.429Z,8.30
2022-08-23T15:18:33.605Z,9.10
2022-08-23T15:21:03.424Z,8.80
2022-08-23T15:23:32.132Z,8.50
2022-08-23T15:26:00.535Z,6.70
2022-08-23T15:28:30.593Z,7.50
2022-08-23T15:31:00.019Z,6.30
2022-08-23T15:33:30.975Z,6.60
2022-08-23T15:36:01.683Z,6.30
2022-08-23T15:38:31.218Z,7.10
2022-08-23T15:40:59.829Z,6.50
2022-08-23T15:43:33.921Z,6.50
2022-08-23T15:46:09.437Z,7.50
2022-08-23T15:48:43.630Z,7.30
2022-08-23T15:51:12.445Z,5.70
2022-08-23T15:53:40.883Z,5.40
2022-08-23T15:56:13.909Z,5.30
2022-08-23T15:58:42.388Z,5.80
2022-08-23T16:01:11.766Z,5.70
2022-08-23T16:03:42.777Z,5.50
2022-08-23T16:06:13.359Z,5.00
2022-08-23T16:08:45.616Z,4.80
2022-08-23T16:11:14.111Z,5.60
2022-08-23T16:13:44.916Z,4.50
2022-08-23T16:16:18.937Z,4.30
2022-08-23T16:18:48.079Z,5.00
2022-08-23T16:21:17.417Z,4.70
2022-08-23T16:23:47.549Z,5.10
2022-08-23T16:26:21.569Z,4.40
2022-08-23T16:28:52.431Z,5.10
2022-08-23T16:31:22.009Z,4.20
2022-08-23T16:34:09.760Z,5.00
2022-08-23T16:36:40.618Z,4.20
2022-08-23T16:39:10.186Z,4.90
2022-08-23T16:41:38.618Z,4.40
2022-08-23T16:44:07.675Z,4.40
2022-08-23T16:46:39.136Z,4.50
2022-08-23T16:49:07.735Z,4.60
2022-08-23T16:51:36.155Z,4.50
2022-08-23T16:54:05.676Z,4.60
2022-08-23T16:56:35.795Z,5.80
2022-08-23T16:59:07.088Z,8.50
2022-08-23T17:01:46.456Z,5.50
2022-08-23T17:04:15.516Z,7.00
2022-08-23T17:06:45.638Z,6.90
2022-08-23T17:09:14.519Z,5.70
2022-08-23T17:11:44.330Z,5.50
2022-08-23T17:14:13.028Z,5.80
2022-08-23T17:16:43.918Z,5.30
2022-08-23T17:19:13.631Z,6.20
2022-08-23T17:21:43.636Z,6.10
2022-08-23T17:24:16.583Z,5.70
2022-08-23T17:26:46.464Z,5.00
2022-08-23T17:29:14.971Z,5.00
2022-08-23T17:31:43.986Z,5.20
2022-08-23T17:34:12.358Z,5.10
2022-08-23T17:36:47.703Z,5.40
2022-08-23T17:39:19.241Z,4.50
2022-08-23T17:41:48.154Z,4.70
2022-08-23T17:44:17.148Z,4.10
2022-08-23T17:46:47.035Z,4.10
2022-08-23T17:49:17.314Z,4.70
2022-08-23T17:51:46.233Z,4.20
2022-08-23T17:54:16.119Z,4.60
2022-08-23T17:56:50.421Z,4.10
2022-08-23T17:59:20.104Z,4.20
2022-08-23T18:01:48.561Z,4.50
2022-08-23T18:04:16.985Z,4.50
2022-08-23T18:06:48.854Z,4.60
2022-08-23T18:09:17.496Z,4.70
2022-08-23T18:11:47.421Z,4.00
2022-08-23T18:14:15.926Z,4.40
2022-08-23T18:16:45.577Z,4.50
2022-08-23T18:19:14.579Z,4.40
2022-08-23T18:21:46.512Z,4.70
2022-08-23T18:24:15.659Z,4.50
2022-08-23T18:27:03.364Z,3.90
2022-08-23T18:29:38.571Z,4.90
2022-08-23T18:32:08.192Z,4.20
2022-08-23T18:34:39.535Z,4.50
2022-08-23T18:37:09.069Z,4.60
2022-08-23T18:39:37.521Z,4.60
2022-08-23T18:42:09.037Z,4.20
2022-08-23T18:44:38.406Z,4.80
2022-08-23T18:47:07.393Z,4.30
2022-08-23T18:49:36.736Z,4.50
2022-08-23T18:52:07.267Z,4.80
2022-08-23T18:54:38.263Z,4.70
2022-08-23T18:57:07.442Z,4.40
2022-08-23T18:59:44.499Z,5.10
2022-08-23T19:02:13.570Z,4.40
2022-08-23T19:04:45.463Z,5.00
2022-08-23T19:07:15.005Z,4.00
2022-08-23T19:09:43.924Z,4.20
2022-08-23T19:12:13.875Z,4.10
2022-08-23T19:14:42.588Z,4.50
2022-08-23T19:17:12.358Z,4.70
2022-08-23T19:19:40.835Z,4.40
2022-08-23T19:22:09.288Z,4.20
2022-08-23T19:24:37.761Z,4.70
2022-08-23T19:27:06.315Z,3.60
2022-08-23T19:29:36.114Z,4.20
2022-08-23T19:32:08.648Z,4.00
2022-08-23T19:34:37.441Z,4.60
2022-08-23T19:37:10.769Z,4.20
2022-08-23T19:39:49.231Z,4.50
2022-08-23T19:42:19.975Z,4.80
2022-08-23T19:44:48.893Z,5.10
2022-08-23T19:47:20.346Z,4.10
2022-08-23T19:49:50.869Z,4.10
2022-08-23T19:52:19.634Z,4.20
2022-08-23T19:54:48.496Z,5.30
2022-08-23T19:57:16.968Z,7.60
2022-08-23T19:59:45.372Z,5.00
2022-08-23T20:02:13.880Z,4.00
2022-08-23T20:04:42.399Z,4.30
2022-08-23T20:07:11.415Z,8.00
2022-08-23T20:09:39.815Z,4.90
2022-08-23T20:12:10.716Z,4.40
2022-08-23T20:14:39.586Z,4.80
2022-08-23T20:17:08.147Z,4.40
2022-08-23T20:19:37.017Z,4.00
2022-08-23T20:22:24.183Z,4.20
2022-08-23T20:24:53.343Z,4.40
2022-08-23T20:27:25.472Z,3.50
2022-08-23T20:30:00.729Z,3.50
2022-08-23T20:32:30.644Z,4.30
2022-08-23T20:34:59.940Z,4.60
2022-08-23T20:37:30.491Z,4.50
2022-08-23T20:39:59.846Z,4.30
2022-08-23T20:42:28.401Z,4.20
2022-08-23T20:44:57.145Z,4.10
2022-08-23T20:47:25.737Z,3.90
2022-08-23T20:49:54.426Z,4.00
2022-08-23T20:52:22.782Z,3.50
2022-08-23T20:54:52.939Z,3.90
2022-08-23T20:57:22.066Z,4.60
2022-08-23T20:59:50.638Z,4.00
2022-08-23T21:02:19.228Z,4.40
2022-08-23T21:04:49.155Z,8.20
2022-08-23T21:07:17.751Z,5.20
2022-08-23T21:09:50.766Z,4.50
2022-08-23T21:12:19.422Z,4.10
2022-08-23T21:14:47.818Z,4.10
2022-08-23T21:17:16.342Z,4.50
2022-08-23T21:19:44.706Z,4.30
2022-08-23T21:22:13.242Z,4.10
2022-08-23T21:24:41.657Z,4.50
2022-08-23T21:27:10.122Z,4.80
2022-08-23T21:29:39.085Z,5.00
2022-08-23T21:32:07.732Z,4.70
2022-08-23T21:34:36.300Z,5.30
2022-08-23T21:37:04.925Z,7.20
2022-08-23T21:39:33.110Z,5.60
2022-08-23T21:42:02.042Z,4.30
2022-08-23T21:44:43.244Z,5.10
2022-08-23T21:47:11.980Z,5.10
2022-08-23T21:49:40.436Z,4.30
2022-08-23T21:52:08.839Z,5.40
2022-08-23T21:54:41.432Z,4.30
2022-08-23T21:57:11.908Z,4.50
2022-08-23T21:59:40.882Z,4.50
2022-08-23T22:02:09.293Z,4.70
2022-08-23T22:04:38.851Z,5.60
2022-08-23T22:07:07.226Z,4.10
2022-08-23T22:09:35.578Z,4.50
2022-08-23T22:12:05.796Z,4.90
2022-08-23T22:14:35.273Z,5.30
2022-08-23T22:17:05.178Z,5.10
2022-08-23T22:19:33.738Z,4.60
2022-08-23T22:22:02.966Z,5.00
2022-08-23T22:24:31.389Z,4.70
2022-08-23T22:26:59.992Z,5.30
2022-08-23T22:29:28.735Z,4.70
2022-08-23T22:31:57.085Z,4.70
2022-08-23T22:34:25.469Z,5.20
2022-08-23T22:36:56.090Z,5.60
2022-08-23T22:39:24.891Z,5.30
2022-08-23T22:41:54.461Z,4.70
2022-08-23T22:44:22.873Z,4.80
2022-08-23T22:46:51.239Z,4.80
2022-08-23T22:49:19.633Z,5.00
2022-08-23T22:51:49.173Z,4.40
2022-08-23T22:54:24.457Z,4.60
2022-08-23T22:56:53.723Z,5.30
2022-08-23T22:59:32.145Z,5.00
2022-08-23T23:02:03.630Z,5.30
2022-08-23T23:04:33.029Z,4.70
2022-08-23T23:07:01.780Z,4.40
2022-08-23T23:09:30.403Z,4.40
2022-08-23T23:11:58.899Z,5.10
2022-08-23T23:14:27.506Z,5.00
2022-08-23T23:16:56.074Z,5.10
2022-08-23T23:19:43.083Z,4.70
2022-08-23T23:22:14.530Z,4.80
2022-08-23T23:24:42.988Z,5.20
2022-08-23T23:27:11.452Z,4.80
2022-08-23T23:29:41.536Z,5.50
2022-08-23T23:32:10.050Z,5.80
2022-08-23T23:34:38.515Z,5.00
2022-08-23T23:37:06.898Z,5.70
2022-08-23T23:39:35.781Z,5.70
2022-08-23T23:42:04.843Z,5.40
2022-08-23T23:44:33.303Z,4.80
2022-08-23T23:47:02.110Z,4.90
2022-08-23T23:49:33.099Z,5.40
2022-08-23T23:52:04.111Z,5.00
2022-08-23T23:54:34.921Z,5.40
2022-08-23T23:57:03.984Z,4.50
2022-08-23T23:59:32.403Z,4.60
